sensor_id;sensor_type;location;lat;lon;timestamp;P1;durP1;ratioP1;P2;durP2;ratioP2
20729;SDS011;10526;50.850;12.928;2022-07-05T00:02:57;8.95;;;2.15;;
20729;SDS011;10526;50.850;12.928;2022-07-05T00:07:19;11.02;;;2.58;;
20729;SDS011;10526;50.850;12.928;2022-07-05T00:11:42;22.05;;;3.67;;
20729;SDS011;10526;50.850;12.928;2022-07-05T00:16:05;23.55;;;3.50;;
20729;SDS011;10526;50.850;12.928;2022-07-05T00:20:27;5.88;;;2.30;;
20729;SDS011;10526;50.850;12.928;2022-07-05T00:24:49;19.55;;;2.85;;
20729;SDS011;10526;50.850;12.928;2022-07-05T00:29:11;17.65;;;4.00;;
20729;SDS011;10526;50.850;12.928;2022-07-05T00:33:33;11.88;;;2.90;;
20729;SDS011;10526;50.850;12.928;2022-07-05T00:37:55;13.80;;;3.10;;
20729;SDS011;10526;50.850;12.928;2022-07-05T00:42:18;7.25;;;3.03;;
20729;SDS011;10526;50.850;12.928;2022-07-05T00:46:41;9.52;;;3.10;;
20729;SDS011;10526;50.850;12.928;2022-07-05T00:51:05;17.15;;;3.47;;
20729;SDS011;10526;50.850;12.928;2022-07-05T00:55:27;9.65;;;3.17;;
20729;SDS011;10526;50.850;12.928;2022-07-05T00:59:50;7.00;;;3.13;;
20729;SDS011;10526;50.850;12.928;2022-07-05T01:04:12;24.20;;;4.47;;
20729;SDS011;10526;50.850;12.928;2022-07-05T01:08:35;29.90;;;5.03;;
20729;SDS011;10526;50.850;12.928;2022-07-05T01:13:03;28.92;;;4.78;;
20729;SDS011;10526;50.850;12.928;2022-07-05T01:17:26;21.38;;;3.35;;
20729;SDS011;10526;50.850;12.928;2022-07-05T01:21:49;6.38;;;3.63;;
20729;SDS011;10526;50.850;12.928;2022-07-05T01:26:12;15.77;;;4.28;;
20729;SDS011;10526;50.850;12.928;2022-07-05T01:30:35;9.95;;;3.13;;
20729;SDS011;10526;50.850;12.928;2022-07-05T01:34:57;6.00;;;3.00;;
20729;SDS011;10526;50.850;12.928;2022-07-05T01:39:20;40.28;;;6.75;;
20729;SDS011;10526;50.850;12.928;2022-07-05T01:43:42;17.13;;;3.97;;
20729;SDS011;10526;50.850;12.928;2022-07-05T01:48:09;7.43;;;3.13;;
20729;SDS011;10526;50.850;12.928;2022-07-05T01:52:36;11.95;;;3.80;;
20729;SDS011;10526;50.850;12.928;2022-07-05T01:57:00;27.20;;;5.43;;
20729;SDS011;10526;50.850;12.928;2022-07-05T02:01:36;12.90;;;3.05;;
20729;SDS011;10526;50.850;12.928;2022-07-05T02:06:00;5.25;;;3.40;;
20729;SDS011;10526;50.850;12.928;2022-07-05T02:10:24;8.00;;;2.95;;
20729;SDS011;10526;50.850;12.928;2022-07-05T02:14:46;10.93;;;3.00;;
20729;SDS011;10526;50.850;12.928;2022-07-05T02:19:12;7.05;;;2.67;;
20729;SDS011;10526;50.850;12.928;2022-07-05T02:23:36;4.43;;;2.20;;
20729;SDS011;10526;50.850;12.928;2022-07-05T02:28:01;27.48;;;4.78;;
20729;SDS011;10526;50.850;12.928;2022-07-05T02:32:25;21.95;;;4.10;;
20729;SDS011;10526;50.850;12.928;2022-07-05T02:36:48;8.68;;;3.08;;
20729;SDS011;10526;50.850;12.928;2022-07-05T02:41:10;12.52;;;3.55;;
20729;SDS011;10526;50.850;12.928;2022-07-05T02:45:37;15.50;;;3.53;;
20729;SDS011;10526;50.850;12.928;2022-07-05T02:50:06;14.27;;;2.97;;
20729;SDS011;10526;50.850;12.928;2022-07-05T02:54:36;12.52;;;3.33;;
20729;SDS011;10526;50.850;12.928;2022-07-05T02:58:59;13.43;;;3.35;;
20729;SDS011;10526;50.850;12.928;2022-07-05T03:03:24;16.48;;;4.25;;
20729;SDS011;10526;50.850;12.928;2022-07-05T03:07:48;7.38;;;2.97;;
20729;SDS011;10526;50.850;12.928;2022-07-05T03:12:11;9.43;;;3.55;;
20729;SDS011;10526;50.850;12.928;2022-07-05T03:16:34;6.38;;;2.88;;
20729;SDS011;10526;50.850;12.928;2022-07-05T03:20:56;6.45;;;2.60;;
20729;SDS011;10526;50.850;12.928;2022-07-05T03:25:22;8.75;;;3.00;;
20729;SDS011;10526;50.850;12.928;2022-07-05T03:29:45;19.42;;;5.22;;
20729;SDS011;10526;50.850;12.928;2022-07-05T03:34:09;10.88;;;3.60;;
20729;SDS011;10526;50.850;12.928;2022-07-05T03:38:32;9.45;;;3.53;;
20729;SDS011;10526;50.850;12.928;2022-07-05T03:42:54;23.23;;;4.25;;
20729;SDS011;10526;50.850;12.928;2022-07-05T03:47:19;20.70;;;4.60;;
20729;SDS011;10526;50.850;12.928;2022-07-05T03:51:43;14.27;;;3.53;;
20729;SDS011;10526;50.850;12.928;2022-07-05T03:56:06;25.70;;;4.25;;
20729;SDS011;10526;50.850;12.928;2022-07-05T04:00:36;8.70;;;3.65;;
20729;SDS011;10526;50.850;12.928;2022-07-05T04:05:02;16.25;;;4.82;;
20729;SDS011;10526;50.850;12.928;2022-07-05T04:09:27;12.77;;;4.70;;
20729;SDS011;10526;50.850;12.928;2022-07-05T04:13:50;14.13;;;4.38;;
20729;SDS011;10526;50.850;12.928;2022-07-05T04:18:13;20.27;;;8.13;;
20729;SDS011;10526;50.850;12.928;2022-07-05T04:22:36;16.05;;;4.63;;
20729;SDS011;10526;50.850;12.928;2022-07-05T04:26:59;19.00;;;5.43;;
20729;SDS011;10526;50.850;12.928;2022-07-05T04:31:22;18.27;;;3.90;;
20729;SDS011;10526;50.850;12.928;2022-07-05T04:35:47;18.75;;;3.92;;
20729;SDS011;10526;50.850;12.928;2022-07-05T04:40:10;17.20;;;4.22;;
20729;SDS011;10526;50.850;12.928;2022-07-05T04:44:35;15.00;;;5.30;;
20729;SDS011;10526;50.850;12.928;2022-07-05T04:48:57;43.58;;;6.32;;
20729;SDS011;10526;50.850;12.928;2022-07-05T04:53:20;13.43;;;4.75;;
20729;SDS011;10526;50.850;12.928;2022-07-05T04:57:42;17.98;;;4.35;;
20729;SDS011;10526;50.850;12.928;2022-07-05T05:02:04;15.25;;;5.15;;
20729;SDS011;10526;50.850;12.928;2022-07-05T05:06:26;11.10;;;3.70;;
20729;SDS011;10526;50.850;12.928;2022-07-05T05:10:48;14.10;;;3.80;;
20729;SDS011;10526;50.850;12.928;2022-07-05T05:15:10;11.05;;;3.05;;
20729;SDS011;10526;50.850;12.928;2022-07-05T05:19:32;9.75;;;2.80;;
20729;SDS011;10526;50.850;12.928;2022-07-05T05:23:54;16.63;;;3.60;;
20729;SDS011;10526;50.850;12.928;2022-07-05T05:28:17;32.40;;;4.45;;
20729;SDS011;10526;50.850;12.928;2022-07-05T05:32:39;25.30;;;3.28;;
20729;SDS011;10526;50.850;12.928;2022-07-05T05:37:01;11.07;;;2.35;;
20729;SDS011;10526;50.850;12.928;2022-07-05T05:41:24;19.00;;;2.47;;
20729;SDS011;10526;50.850;12.928;2022-07-05T05:45:46;12.32;;;2.60;;
20729;SDS011;10526;50.850;12.928;2022-07-05T05:50:08;13.35;;;2.20;;
20729;SDS011;10526;50.850;12.928;2022-07-05T05:54:31;3.35;;;1.48;;
20729;SDS011;10526;50.850;12.928;2022-07-05T05:58:53;7.05;;;1.67;;
20729;SDS011;10526;50.850;12.928;2022-07-05T06:03:15;19.15;;;2.63;;
20729;SDS011;10526;50.850;12.928;2022-07-05T06:07:45;7.95;;;1.60;;
20729;SDS011;10526;50.850;12.928;2022-07-05T06:12:18;6.43;;;1.48;;
20729;SDS011;10526;50.850;12.928;2022-07-05T06:16:41;18.33;;;2.30;;
20729;SDS011;10526;50.850;12.928;2022-07-05T06:21:03;11.95;;;1.60;;
20729;SDS011;10526;50.850;12.928;2022-07-05T06:25:27;12.60;;;2.00;;
20729;SDS011;10526;50.850;12.928;2022-07-05T06:29:53;28.63;;;3.22;;
20729;SDS011;10526;50.850;12.928;2022-07-05T06:34:15;8.55;;;1.63;;
20729;SDS011;10526;50.850;12.928;2022-07-05T06:38:37;9.23;;;1.50;;
20729;SDS011;10526;50.850;12.928;2022-07-05T06:43:00;7.88;;;1.35;;
20729;SDS011;10526;50.850;12.928;2022-07-05T06:47:33;13.60;;;2.08;;
20729;SDS011;10526;50.850;12.928;2022-07-05T06:51:55;12.10;;;2.00;;
20729;SDS011;10526;50.850;12.928;2022-07-05T06:56:17;11.15;;;1.73;;
20729;SDS011;10526;50.850;12.928;2022-07-05T07:00:40;6.38;;;1.48;;
20729;SDS011;10526;50.850;12.928;2022-07-05T07:05:23;5.70;;;1.08;;
20729;SDS011;10526;50.850;12.928;2022-07-05T07:09:50;16.25;;;2.03;;
20729;SDS011;10526;50.850;12.928;2022-07-05T07:14:12;7.43;;;1.10;;
20729;SDS011;10526;50.850;12.928;2022-07-05T07:18:34;8.02;;;1.05;;
20729;SDS011;10526;50.850;12.928;2022-07-05T07:23:20;22.95;;;3.10;;
20729;SDS011;10526;50.850;12.928;2022-07-05T07:27:46;6.35;;;1.27;;
20729;SDS011;10526;50.850;12.928;2022-07-05T07:32:11;2.67;;;1.17;;
20729;SDS011;10526;50.850;12.928;2022-07-05T07:36:34;6.00;;;1.67;;
20729;SDS011;10526;50.850;12.928;2022-07-05T07:40:56;2.03;;;0.65;;
20729;SDS011;10526;50.850;12.928;2022-07-05T07:45:18;11.98;;;1.73;;
20729;SDS011;10526;50.850;12.928;2022-07-05T07:49:40;7.72;;;1.27;;
20729;SDS011;10526;50.850;12.928;2022-07-05T07:54:06;5.97;;;1.30;;
20729;SDS011;10526;50.850;12.928;2022-07-05T07:58:34;9.73;;;1.55;;
20729;SDS011;10526;50.850;12.928;2022-07-05T08:02:57;6.82;;;1.30;;
20729;SDS011;10526;50.850;12.928;2022-07-05T08:07:21;23.52;;;2.53;;
20729;SDS011;10526;50.850;12.928;2022-07-05T08:11:47;10.55;;;1.55;;
20729;SDS011;10526;50.850;12.928;2022-07-05T08:16:08;4.15;;;1.25;;
20729;SDS011;10526;50.850;12.928;2022-07-05T08:20:32;14.50;;;1.73;;
20729;SDS011;10526;50.850;12.928;2022-07-05T08:25:13;10.95;;;1.17;;
20729;SDS011;10526;50.850;12.928;2022-07-05T08:29:36;24.40;;;3.58;;
20729;SDS011;10526;50.850;12.928;2022-07-05T08:33:58;4.32;;;0.80;;
20729;SDS011;10526;50.850;12.928;2022-07-05T08:38:21;2.83;;;0.68;;
20729;SDS011;10526;50.850;12.928;2022-07-05T08:42:43;7.22;;;0.98;;
20729;SDS011;10526;50.850;12.928;2022-07-05T08:47:08;3.67;;;1.10;;
20729;SDS011;10526;50.850;12.928;2022-07-05T08:51:35;2.38;;;0.88;;
20729;SDS011;10526;50.850;12.928;2022-07-05T08:56:00;5.05;;;1.10;;
20729;SDS011;10526;50.850;12.928;2022-07-05T09:00:23;4.57;;;0.77;;
20729;SDS011;10526;50.850;12.928;2022-07-05T09:04:45;2.63;;;0.80;;
20729;SDS011;10526;50.850;12.928;2022-07-05T09:09:10;8.13;;;1.40;;
20729;SDS011;10526;50.850;12.928;2022-07-05T09:13:37;24.08;;;2.33;;
20729;SDS011;10526;50.850;12.928;2022-07-05T09:23:29;22.85;;;2.83;;
20729;SDS011;10526;50.850;12.928;2022-07-05T09:28:00;16.75;;;2.03;;
20729;SDS011;10526;50.850;12.928;2022-07-05T09:32:28;4.28;;;0.95;;
20729;SDS011;10526;50.850;12.928;2022-07-05T09:36:55;2.28;;;0.70;;
20729;SDS011;10526;50.850;12.928;2022-07-05T09:41:24;5.10;;;0.98;;
20729;SDS011;10526;50.850;12.928;2022-07-05T09:50:34;1.75;;;0.80;;
20729;SDS011;10526;50.850;12.928;2022-07-05T09:55:16;2.97;;;0.88;;
20729;SDS011;10526;50.850;12.928;2022-07-05T09:59:40;2.00;;;0.60;;
20729;SDS011;10526;50.850;12.928;2022-07-05T10:04:03;4.63;;;1.02;;
20729;SDS011;10526;50.850;12.928;2022-07-05T10:08:25;3.67;;;1.27;;
20729;SDS011;10526;50.850;12.928;2022-07-05T10:12:50;6.70;;;1.20;;
20729;SDS011;10526;50.850;12.928;2022-07-05T10:17:13;4.72;;;0.70;;
20729;SDS011;10526;50.850;12.928;2022-07-05T10:21:36;6.75;;;1.40;;
20729;SDS011;10526;50.850;12.928;2022-07-05T10:26:18;5.13;;;0.82;;
20729;SDS011;10526;50.850;12.928;2022-07-05T10:30:41;4.35;;;1.20;;
20729;SDS011;10526;50.850;12.928;2022-07-05T10:35:08;4.65;;;1.05;;
20729;SDS011;10526;50.850;12.928;2022-07-05T10:39:31;4.15;;;0.80;;
20729;SDS011;10526;50.850;12.928;2022-07-05T10:43:54;5.53;;;0.80;;
20729;SDS011;10526;50.850;12.928;2022-07-05T10:48:24;4.85;;;1.10;;
20729;SDS011;10526;50.850;12.928;2022-07-05T10:57:42;2.70;;;0.85;;
20729;SDS011;10526;50.850;12.928;2022-07-05T11:02:12;17.30;;;1.77;;
20729;SDS011;10526;50.850;12.928;2022-07-05T11:11:12;6.65;;;1.67;;
20729;SDS011;10526;50.850;12.928;2022-07-05T11:15:35;4.30;;;1.27;;
20729;SDS011;10526;50.850;12.928;2022-07-05T11:20:04;9.63;;;1.50;;
20729;SDS011;10526;50.850;12.928;2022-07-05T11:24:33;13.35;;;1.77;;
20729;SDS011;10526;50.850;12.928;2022-07-05T11:28:58;7.78;;;1.50;;
20729;SDS011;10526;50.850;12.928;2022-07-05T11:33:33;7.72;;;1.30;;
20729;SDS011;10526;50.850;12.928;2022-07-05T11:38:06;4.88;;;1.10;;
20729;SDS011;10526;50.850;12.928;2022-07-05T11:42:50;16.70;;;1.98;;
20729;SDS011;10526;50.850;12.928;2022-07-05T11:47:12;8.90;;;1.45;;
20729;SDS011;10526;50.850;12.928;2022-07-05T11:51:35;19.50;;;2.13;;
20729;SDS011;10526;50.850;12.928;2022-07-05T11:55:58;8.88;;;1.42;;
20729;SDS011;10526;50.850;12.928;2022-07-05T12:00:27;6.03;;;1.50;;
20729;SDS011;10526;50.850;12.928;2022-07-05T12:04:53;6.30;;;1.20;;
20729;SDS011;10526;50.850;12.928;2022-07-05T12:09:27;10.02;;;1.85;;
20729;SDS011;10526;50.850;12.928;2022-07-05T12:14:21;7.70;;;1.30;;
20729;SDS011;10526;50.850;12.928;2022-07-05T12:18:48;6.43;;;1.30;;
20729;SDS011;10526;50.850;12.928;2022-07-05T12:23:31;9.55;;;2.08;;
20729;SDS011;10526;50.850;12.928;2022-07-05T12:27:53;16.80;;;2.47;;
20729;SDS011;10526;50.850;12.928;2022-07-05T12:32:18;16.52;;;2.20;;
20729;SDS011;10526;50.850;12.928;2022-07-05T12:36:42;9.10;;;1.60;;
20729;SDS011;10526;50.850;12.928;2022-07-05T12:41:04;5.35;;;1.42;;
20729;SDS011;10526;50.850;12.928;2022-07-05T12:45:26;17.83;;;2.13;;
20729;SDS011;10526;50.850;12.928;2022-07-05T12:49:52;12.18;;;2.42;;
20729;SDS011;10526;50.850;12.928;2022-07-05T12:54:23;6.28;;;1.48;;
20729;SDS011;10526;50.850;12.928;2022-07-05T12:59:04;17.52;;;2.00;;
20729;SDS011;10526;50.850;12.928;2022-07-05T13:03:30;10.77;;;2.05;;
20729;SDS011;10526;50.850;12.928;2022-07-05T13:08:28;3.70;;;1.30;;
20729;SDS011;10526;50.850;12.928;2022-07-05T13:12:51;13.60;;;2.20;;
20729;SDS011;10526;50.850;12.928;2022-07-05T13:17:15;11.38;;;1.70;;
20729;SDS011;10526;50.850;12.928;2022-07-05T13:21:39;22.63;;;2.63;;
20729;SDS011;10526;50.850;12.928;2022-07-05T13:26:01;6.18;;;1.58;;
20729;SDS011;10526;50.850;12.928;2022-07-05T13:30:24;16.17;;;2.42;;
20729;SDS011;10526;50.850;12.928;2022-07-05T13:34:46;10.80;;;1.75;;
20729;SDS011;10526;50.850;12.928;2022-07-05T13:39:11;13.98;;;1.88;;
20729;SDS011;10526;50.850;12.928;2022-07-05T13:43:33;25.38;;;3.33;;
20729;SDS011;10526;50.850;12.928;2022-07-05T13:47:56;7.18;;;1.42;;
20729;SDS011;10526;50.850;12.928;2022-07-05T13:52:18;7.88;;;1.70;;
20729;SDS011;10526;50.850;12.928;2022-07-05T13:56:40;8.98;;;1.33;;
20729;SDS011;10526;50.850;12.928;2022-07-05T14:01:09;6.85;;;1.83;;
20729;SDS011;10526;50.850;12.928;2022-07-05T14:05:31;6.35;;;1.75;;
20729;SDS011;10526;50.850;12.928;2022-07-05T14:09:53;6.03;;;1.10;;
20729;SDS011;10526;50.850;12.928;2022-07-05T14:14:15;8.98;;;1.70;;
20729;SDS011;10526;50.850;12.928;2022-07-05T14:18:37;14.10;;;1.65;;
20729;SDS011;10526;50.850;12.928;2022-07-05T14:22:59;12.52;;;2.03;;
20729;SDS011;10526;50.850;12.928;2022-07-05T14:27:21;18.42;;;2.38;;
20729;SDS011;10526;50.850;12.928;2022-07-05T14:31:48;20.95;;;3.10;;
20729;SDS011;10526;50.850;12.928;2022-07-05T14:36:10;10.18;;;1.50;;
20729;SDS011;10526;50.850;12.928;2022-07-05T14:40:33;3.50;;;1.35;;
20729;SDS011;10526;50.850;12.928;2022-07-05T14:44:56;20.30;;;2.30;;
20729;SDS011;10526;50.850;12.928;2022-07-05T14:49:17;7.22;;;1.17;;
20729;SDS011;10526;50.850;12.928;2022-07-05T14:53:40;8.23;;;2.10;;
20729;SDS011;10526;50.850;12.928;2022-07-05T14:58:08;5.10;;;1.98;;
20729;SDS011;10526;50.850;12.928;2022-07-05T15:02:30;25.33;;;3.40;;
20729;SDS011;10526;50.850;12.928;2022-07-05T15:06:52;13.88;;;1.85;;
20729;SDS011;10526;50.850;12.928;2022-07-05T15:11:14;11.18;;;1.90;;
20729;SDS011;10526;50.850;12.928;2022-07-05T15:15:36;6.55;;;1.90;;
20729;SDS011;10526;50.850;12.928;2022-07-05T15:19:59;5.03;;;1.38;;
20729;SDS011;10526;50.850;12.928;2022-07-05T15:24:22;3.92;;;1.25;;
20729;SDS011;10526;50.850;12.928;2022-07-05T15:28:44;5.50;;;1.98;;
20729;SDS011;10526;50.850;12.928;2022-07-05T15:33:06;14.68;;;2.38;;
20729;SDS011;10526;50.850;12.928;2022-07-05T15:37:31;15.18;;;2.30;;
20729;SDS011;10526;50.850;12.928;2022-07-05T15:41:54;14.90;;;1.98;;
20729;SDS011;10526;50.850;12.928;2022-07-05T15:46:16;5.95;;;1.58;;
20729;SDS011;10526;50.850;12.928;2022-07-05T15:50:38;6.35;;;1.58;;
20729;SDS011;10526;50.850;12.928;2022-07-05T15:55:00;13.77;;;2.20;;
20729;SDS011;10526;50.850;12.928;2022-07-05T15:59:23;7.18;;;1.83;;
20729;SDS011;10526;50.850;12.928;2022-07-05T16:03:48;30.75;;;4.00;;
20729;SDS011;10526;50.850;12.928;2022-07-05T16:08:10;15.23;;;2.08;;
20729;SDS011;10526;50.850;12.928;2022-07-05T16:12:35;14.85;;;2.72;;
20729;SDS011;10526;50.850;12.928;2022-07-05T16:16:57;7.07;;;1.30;;
20729;SDS011;10526;50.850;12.928;2022-07-05T16:21:20;18.77;;;2.10;;
20729;SDS011;10526;50.850;12.928;2022-07-05T16:25:44;8.10;;;1.95;;
20729;SDS011;10526;50.850;12.928;2022-07-05T16:30:07;6.97;;;2.40;;
20729;SDS011;10526;50.850;12.928;2022-07-05T16:34:30;4.25;;;1.40;;
20729;SDS011;10526;50.850;12.928;2022-07-05T16:38:52;4.22;;;1.60;;
20729;SDS011;10526;50.850;12.928;2022-07-05T16:43:23;4.60;;;1.75;;
20729;SDS011;10526;50.850;12.928;2022-07-05T16:47:48;6.72;;;1.55;;
20729;SDS011;10526;50.850;12.928;2022-07-05T16:52:10;11.27;;;2.10;;
20729;SDS011;10526;50.850;12.928;2022-07-05T16:56:32;8.32;;;2.20;;
20729;SDS011;10526;50.850;12.928;2022-07-05T17:00:54;9.13;;;2.15;;
20729;SDS011;10526;50.850;12.928;2022-07-05T17:05:16;24.60;;;3.45;;
20729;SDS011;10526;50.850;12.928;2022-07-05T17:09:39;23.33;;;3.55;;
20729;SDS011;10526;50.850;12.928;2022-07-05T17:14:01;9.43;;;2.70;;
20729;SDS011;10526;50.850;12.928;2022-07-05T17:18:24;11.25;;;2.80;;
20729;SDS011;10526;50.850;12.928;2022-07-05T17:22:46;9.57;;;1.70;;
20729;SDS011;10526;50.850;12.928;2022-07-05T17:27:10;58.28;;;5.93;;
20729;SDS011;10526;50.850;12.928;2022-07-05T17:31:33;15.30;;;2.33;;
20729;SDS011;10526;50.850;12.928;2022-07-05T17:35:56;19.55;;;2.75;;
20729;SDS011;10526;50.850;12.928;2022-07-05T17:40:18;31.90;;;3.50;;
20729;SDS011;10526;50.850;12.928;2022-07-05T17:44:41;21.85;;;2.38;;
20729;SDS011;10526;50.850;12.928;2022-07-05T17:49:08;10.77;;;1.90;;
20729;SDS011;10526;50.850;12.928;2022-07-05T17:53:30;7.80;;;2.20;;
20729;SDS011;10526;50.850;12.928;2022-07-05T17:57:52;10.65;;;2.53;;
20729;SDS011;10526;50.850;12.928;2022-07-05T18:02:14;12.75;;;3.03;;
20729;SDS011;10526;50.850;12.928;2022-07-05T18:06:36;13.50;;;2.33;;
20729;SDS011;10526;50.850;12.928;2022-07-05T18:10:59;7.82;;;2.00;;
20729;SDS011;10526;50.850;12.928;2022-07-05T18:15:21;8.63;;;2.03;;
20729;SDS011;10526;50.850;12.928;2022-07-05T18:19:44;19.33;;;3.67;;
20729;SDS011;10526;50.850;12.928;2022-07-05T18:24:06;13.00;;;2.90;;
20729;SDS011;10526;50.850;12.928;2022-07-05T18:28:29;8.93;;;2.10;;
20729;SDS011;10526;50.850;12.928;2022-07-05T18:32:51;25.02;;;3.38;;
20729;SDS011;10526;50.850;12.928;2022-07-05T18:37:13;9.98;;;1.90;;
20729;SDS011;10526;50.850;12.928;2022-07-05T18:41:35;23.83;;;3.50;;
20729;SDS011;10526;50.850;12.928;2022-07-05T18:45:57;19.83;;;3.15;;
20729;SDS011;10526;50.850;12.928;2022-07-05T18:50:21;21.05;;;2.53;;
20729;SDS011;10526;50.850;12.928;2022-07-05T18:54:43;28.35;;;4.40;;
20729;SDS011;10526;50.850;12.928;2022-07-05T18:59:07;8.23;;;2.05;;
20729;SDS011;10526;50.850;12.928;2022-07-05T19:03:29;6.60;;;1.92;;
20729;SDS011;10526;50.850;12.928;2022-07-05T19:07:51;10.32;;;2.60;;
20729;SDS011;10526;50.850;12.928;2022-07-05T19:12:32;12.68;;;2.47;;
20729;SDS011;10526;50.850;12.928;2022-07-05T19:17:13;8.82;;;2.20;;
20729;SDS011;10526;50.850;12.928;2022-07-05T19:21:35;13.02;;;2.72;;
20729;SDS011;10526;50.850;12.928;2022-07-05T19:25:58;7.60;;;2.17;;
20729;SDS011;10526;50.850;12.928;2022-07-05T19:30:21;9.70;;;2.25;;
20729;SDS011;10526;50.850;12.928;2022-07-05T19:34:44;13.35;;;2.53;;
20729;SDS011;10526;50.850;12.928;2022-07-05T19:39:06;5.35;;;1.77;;
20729;SDS011;10526;50.850;12.928;2022-07-05T19:43:28;7.85;;;2.03;;
20729;SDS011;10526;50.850;12.928;2022-07-05T19:47:53;20.48;;;3.03;;
20729;SDS011;10526;50.850;12.928;2022-07-05T19:52:16;20.67;;;2.60;;
20729;SDS011;10526;50.850;12.928;2022-07-05T19:56:38;8.93;;;2.50;;
20729;SDS011;10526;50.850;12.928;2022-07-05T20:01:01;13.52;;;2.65;;
20729;SDS011;10526;50.850;12.928;2022-07-05T20:05:23;6.57;;;2.20;;
20729;SDS011;10526;50.850;12.928;2022-07-05T20:09:45;10.02;;;2.75;;
20729;SDS011;10526;50.850;12.928;2022-07-05T20:14:08;12.70;;;2.55;;
20729;SDS011;10526;50.850;12.928;2022-07-05T20:18:30;15.02;;;2.95;;
20729;SDS011;10526;50.850;12.928;2022-07-05T20:22:52;8.32;;;2.47;;
20729;SDS011;10526;50.850;12.928;2022-07-05T20:27:14;8.88;;;2.55;;
20729;SDS011;10526;50.850;12.928;2022-07-05T20:31:36;7.15;;;2.33;;
20729;SDS011;10526;50.850;12.928;2022-07-05T20:35:59;4.43;;;1.90;;
20729;SDS011;10526;50.850;12.928;2022-07-05T20:40:21;6.97;;;2.15;;
20729;SDS011;10526;50.850;12.928;2022-07-05T20:44:43;8.52;;;2.42;;
20729;SDS011;10526;50.850;12.928;2022-07-05T20:49:05;11.00;;;2.55;;
20729;SDS011;10526;50.850;12.928;2022-07-05T20:53:27;18.67;;;3.20;;
20729;SDS011;10526;50.850;12.928;2022-07-05T20:57:50;22.88;;;3.35;;
20729;SDS011;10526;50.850;12.928;2022-07-05T21:02:12;15.88;;;3.90;;
20729;SDS011;10526;50.850;12.928;2022-07-05T21:06:34;6.72;;;2.53;;
20729;SDS011;10526;50.850;12.928;2022-07-05T21:10:56;34.08;;;3.35;;
20729;SDS011;10526;50.850;12.928;2022-07-05T21:15:18;8.00;;;2.47;;
20729;SDS011;10526;50.850;12.928;2022-07-05T21:19:41;6.00;;;2.38;;
20729;SDS011;10526;50.850;12.928;2022-07-05T21:24:03;19.75;;;3.45;;
20729;SDS011;10526;50.850;12.928;2022-07-05T21:28:26;31.80;;;3.17;;
20729;SDS011;10526;50.850;12.928;2022-07-05T21:32:50;10.80;;;2.38;;
20729;SDS011;10526;50.850;12.928;2022-07-05T21:37:12;14.82;;;2.88;;
20729;SDS011;10526;50.850;12.928;2022-07-05T21:41:34;12.82;;;2.13;;
20729;SDS011;10526;50.850;12.928;2022-07-05T21:45:57;4.35;;;1.83;;
20729;SDS011;10526;50.850;12.928;2022-07-05T21:50:19;5.85;;;2.22;;
20729;SDS011;10526;50.850;12.928;2022-07-05T21:54:41;14.68;;;3.50;;
20729;SDS011;10526;50.850;12.928;2022-07-05T21:59:04;28.73;;;4.68;;
20729;SDS011;10526;50.850;12.928;2022-07-05T22:03:54;18.50;;;5.32;;
20729;SDS011;10526;50.850;12.928;2022-07-05T22:08:34;19.17;;;4.18;;
20729;SDS011;10526;50.850;12.928;2022-07-05T22:12:56;14.07;;;3.35;;
20729;SDS011;10526;50.850;12.928;2022-07-05T22:17:18;9.95;;;2.08;;
20729;SDS011;10526;50.850;12.928;2022-07-05T22:21:43;20.85;;;2.75;;
20729;SDS011;10526;50.850;12.928;2022-07-05T22:26:06;12.80;;;2.67;;
20729;SDS011;10526;50.850;12.928;2022-07-05T22:30:27;20.33;;;3.33;;
20729;SDS011;10526;50.850;12.928;2022-07-05T22:34:50;17.48;;;3.88;;
20729;SDS011;10526;50.850;12.928;2022-07-05T22:39:13;8.40;;;2.63;;
20729;SDS011;10526;50.850;12.928;2022-07-05T22:43:35;6.00;;;2.47;;
20729;SDS011;10526;50.850;12.928;2022-07-05T22:47:57;15.88;;;3.67;;
20729;SDS011;10526;50.850;12.928;2022-07-05T22:52:19;12.10;;;3.88;;
20729;SDS011;10526;50.850;12.928;2022-07-05T22:56:41;13.63;;;4.55;;
20729;SDS011;10526;50.850;12.928;2022-07-05T23:01:03;7.65;;;2.90;;
20729;SDS011;10526;50.850;12.928;2022-07-05T23:05:26;15.60;;;2.80;;
20729;SDS011;10526;50.850;12.928;2022-07-05T23:09:48;12.25;;;2.97;;
20729;SDS011;10526;50.850;12.928;2022-07-05T23:14:10;7.72;;;2.78;;
20729;SDS011;10526;50.850;12.928;2022-07-05T23:18:32;7.32;;;3.08;;
20729;SDS011;10526;50.850;12.928;2022-07-05T23:22:54;5.85;;;2.95;;
20729;SDS011;10526;50.850;12.928;2022-07-05T23:27:16;13.27;;;3.33;;
20729;SDS011;10526;50.850;12.928;2022-07-05T23:31:38;19.38;;;4.47;;
20729;SDS011;10526;50.850;12.928;2022-07-05T23:36:00;14.23;;;4.68;;
20729;SDS011;10526;50.850;12.928;2022-07-05T23:40:22;17.73;;;4.82;;
20729;SDS011;10526;50.850;12.928;2022-07-05T23:44:44;8.13;;;4.20;;
20729;SDS011;10526;50.850;12.928;2022-07-05T23:49:07;8.43;;;3.50;;
20729;SDS011;10526;50.850;12.928;2022-07-05T23:53:29;8.13;;;3.67;;
20729;SDS011;10526;50.850;12.928;2022-07-05T23:57:51;10.48;;;3.65;;
